sensor_id;sensor_type;location;lat;lon;timestamp;P1;durP1;ratioP1;P2;durP2;ratioP2
52322;SDS011;38263;52.920;6.238;2024-03-07T00:02:04;45.08;;;24.08;;
52322;SDS011;38263;52.920;6.238;2024-03-07T00:04:30;40.67;;;21.98;;
52322;SDS011;38263;52.920;6.238;2024-03-07T00:06:56;40.55;;;21.70;;
52322;SDS011;38263;52.920;6.238;2024-03-07T00:09:22;43.17;;;22.40;;
52322;SDS011;38263;52.920;6.238;2024-03-07T00:11:49;45.22;;;23.65;;
52322;SDS011;38263;52.920;6.238;2024-03-07T00:14:15;44.95;;;23.27;;
52322;SDS011;38263;52.920;6.238;2024-03-07T00:16:41;45.30;;;23.52;;
52322;SDS011;38263;52.920;6.238;2024-03-07T00:19:07;41.25;;;24.20;;
52322;SDS011;38263;52.920;6.238;2024-03-07T00:21:33;45.03;;;24.60;;
52322;SDS011;38263;52.920;6.238;2024-03-07T00:23:59;41.17;;;23.52;;
52322;SDS011;38263;52.920;6.238;2024-03-07T00:26:26;44.63;;;24.50;;
52322;SDS011;38263;52.920;6.238;2024-03-07T00:28:52;41.25;;;23.30;;
52322;SDS011;38263;52.920;6.238;2024-03-07T00:31:18;46.75;;;24.10;;
52322;SDS011;38263;52.920;6.238;2024-03-07T00:33:44;41.20;;;23.63;;
52322;SDS011;38263;52.920;6.238;2024-03-07T00:36:10;42.78;;;23.48;;
52322;SDS011;38263;52.920;6.238;2024-03-07T00:38:37;44.28;;;24.17;;
52322;SDS011;38263;52.920;6.238;2024-03-07T00:41:03;39.00;;;21.60;;
52322;SDS011;38263;52.920;6.238;2024-03-07T00:43:29;41.35;;;23.65;;
52322;SDS011;38263;52.920;6.238;2024-03-07T00:45:55;46.42;;;23.95;;
52322;SDS011;38263;52.920;6.238;2024-03-07T00:48:22;42.67;;;23.50;;
52322;SDS011;38263;52.920;6.238;2024-03-07T00:50:50;38.55;;;22.27;;
52322;SDS011;38263;52.920;6.238;2024-03-07T00:53:16;47.90;;;24.83;;
52322;SDS011;38263;52.920;6.238;2024-03-07T00:55:42;44.65;;;22.25;;
52322;SDS011;38263;52.920;6.238;2024-03-07T00:58:09;46.38;;;24.05;;
52322;SDS011;38263;52.920;6.238;2024-03-07T01:00:35;41.42;;;22.90;;
52322;SDS011;38263;52.920;6.238;2024-03-07T01:03:01;43.88;;;23.00;;
52322;SDS011;38263;52.920;6.238;2024-03-07T01:05:27;42.92;;;22.98;;
52322;SDS011;38263;52.920;6.238;2024-03-07T01:07:53;36.92;;;21.60;;
52322;SDS011;38263;52.920;6.238;2024-03-07T01:10:20;40.78;;;22.90;;
52322;SDS011;38263;52.920;6.238;2024-03-07T01:12:47;42.83;;;22.63;;
52322;SDS011;38263;52.920;6.238;2024-03-07T01:15:15;42.05;;;21.80;;
52322;SDS011;38263;52.920;6.238;2024-03-07T01:17:41;39.47;;;22.42;;
52322;SDS011;38263;52.920;6.238;2024-03-07T01:20:07;42.72;;;23.70;;
52322;SDS011;38263;52.920;6.238;2024-03-07T01:22:34;41.25;;;23.33;;
52322;SDS011;38263;52.920;6.238;2024-03-07T01:25:00;39.97;;;23.42;;
52322;SDS011;38263;52.920;6.238;2024-03-07T01:27:26;38.85;;;22.00;;
52322;SDS011;38263;52.920;6.238;2024-03-07T01:29:52;39.05;;;21.10;;
52322;SDS011;38263;52.920;6.238;2024-03-07T01:32:18;46.45;;;22.50;;
52322;SDS011;38263;52.920;6.238;2024-03-07T01:34:44;39.15;;;22.92;;
52322;SDS011;38263;52.920;6.238;2024-03-07T01:37:10;40.63;;;23.15;;
52322;SDS011;38263;52.920;6.238;2024-03-07T01:39:36;38.80;;;21.88;;
52322;SDS011;38263;52.920;6.238;2024-03-07T01:42:02;37.00;;;21.85;;
52322;SDS011;38263;52.920;6.238;2024-03-07T01:44:29;39.22;;;21.30;;
52322;SDS011;38263;52.920;6.238;2024-03-07T01:46:57;37.35;;;21.15;;
52322;SDS011;38263;52.920;6.238;2024-03-07T01:49:25;38.22;;;21.27;;
52322;SDS011;38263;52.920;6.238;2024-03-07T01:51:51;40.08;;;22.77;;
52322;SDS011;38263;52.920;6.238;2024-03-07T01:54:17;37.30;;;21.10;;
52322;SDS011;38263;52.920;6.238;2024-03-07T01:56:43;38.15;;;20.75;;
52322;SDS011;38263;52.920;6.238;2024-03-07T01:59:09;40.28;;;21.33;;
52322;SDS011;38263;52.920;6.238;2024-03-07T02:01:36;42.80;;;21.75;;
52322;SDS011;38263;52.920;6.238;2024-03-07T02:04:04;38.20;;;20.08;;
52322;SDS011;38263;52.920;6.238;2024-03-07T02:06:29;39.53;;;20.38;;
52322;SDS011;38263;52.920;6.238;2024-03-07T02:08:56;33.22;;;21.02;;
52322;SDS011;38263;52.920;6.238;2024-03-07T02:11:22;33.85;;;20.65;;
52322;SDS011;38263;52.920;6.238;2024-03-07T02:13:48;39.55;;;20.55;;
52322;SDS011;38263;52.920;6.238;2024-03-07T02:16:14;42.08;;;21.63;;
52322;SDS011;38263;52.920;6.238;2024-03-07T02:18:40;34.38;;;21.15;;
52322;SDS011;38263;52.920;6.238;2024-03-07T02:21:07;40.55;;;21.10;;
52322;SDS011;38263;52.920;6.238;2024-03-07T02:23:37;39.30;;;22.10;;
52322;SDS011;38263;52.920;6.238;2024-03-07T02:26:03;34.13;;;20.60;;
52322;SDS011;38263;52.920;6.238;2024-03-07T02:28:29;35.65;;;19.85;;
52322;SDS011;38263;52.920;6.238;2024-03-07T02:30:55;38.47;;;19.45;;
52322;SDS011;38263;52.920;6.238;2024-03-07T02:33:21;38.70;;;21.27;;
52322;SDS011;38263;52.920;6.238;2024-03-07T02:35:48;33.15;;;20.02;;
52322;SDS011;38263;52.920;6.238;2024-03-07T02:38:14;37.58;;;21.27;;
52322;SDS011;38263;52.920;6.238;2024-03-07T02:40:40;33.85;;;19.73;;
52322;SDS011;38263;52.920;6.238;2024-03-07T02:43:06;35.67;;;20.85;;
52322;SDS011;38263;52.920;6.238;2024-03-07T02:45:32;37.78;;;20.65;;
52322;SDS011;38263;52.920;6.238;2024-03-07T02:47:58;36.97;;;20.80;;
52322;SDS011;38263;52.920;6.238;2024-03-07T02:50:24;37.03;;;21.73;;
52322;SDS011;38263;52.920;6.238;2024-03-07T02:52:50;37.30;;;20.92;;
52322;SDS011;38263;52.920;6.238;2024-03-07T02:55:17;37.25;;;19.05;;
52322;SDS011;38263;52.920;6.238;2024-03-07T02:57:44;36.15;;;20.73;;
52322;SDS011;38263;52.920;6.238;2024-03-07T03:00:12;36.45;;;20.02;;
52322;SDS011;38263;52.920;6.238;2024-03-07T03:02:47;33.05;;;19.02;;
52322;SDS011;38263;52.920;6.238;2024-03-07T03:05:17;35.70;;;19.58;;
52322;SDS011;38263;52.920;6.238;2024-03-07T03:07:43;43.25;;;22.02;;
52322;SDS011;38263;52.920;6.238;2024-03-07T03:10:18;34.90;;;20.02;;
52322;SDS011;38263;52.920;6.238;2024-03-07T03:12:57;37.75;;;20.02;;
52322;SDS011;38263;52.920;6.238;2024-03-07T03:15:24;33.92;;;18.23;;
52322;SDS011;38263;52.920;6.238;2024-03-07T03:17:50;38.20;;;19.52;;
52322;SDS011;38263;52.920;6.238;2024-03-07T03:20:17;34.95;;;19.13;;
52322;SDS011;38263;52.920;6.238;2024-03-07T03:22:52;35.33;;;18.80;;
52322;SDS011;38263;52.920;6.238;2024-03-07T03:25:19;33.72;;;19.38;;
52322;SDS011;38263;52.920;6.238;2024-03-07T03:27:46;34.58;;;18.98;;
52322;SDS011;38263;52.920;6.238;2024-03-07T03:30:12;36.08;;;20.15;;
52322;SDS011;38263;52.920;6.238;2024-03-07T03:32:42;35.17;;;20.70;;
52322;SDS011;38263;52.920;6.238;2024-03-07T03:35:08;30.90;;;18.27;;
52322;SDS011;38263;52.920;6.238;2024-03-07T03:37:38;32.63;;;19.27;;
52322;SDS011;38263;52.920;6.238;2024-03-07T03:40:05;35.30;;;19.23;;
52322;SDS011;38263;52.920;6.238;2024-03-07T03:42:31;38.08;;;19.85;;
52322;SDS011;38263;52.920;6.238;2024-03-07T03:44:57;35.58;;;19.27;;
52322;SDS011;38263;52.920;6.238;2024-03-07T03:47:23;29.85;;;17.83;;
52322;SDS011;38263;52.920;6.238;2024-03-07T03:49:49;35.15;;;19.23;;
52322;SDS011;38263;52.920;6.238;2024-03-07T03:52:15;35.20;;;18.60;;
52322;SDS011;38263;52.920;6.238;2024-03-07T03:54:41;32.60;;;17.85;;
52322;SDS011;38263;52.920;6.238;2024-03-07T03:57:07;29.15;;;17.80;;
52322;SDS011;38263;52.920;6.238;2024-03-07T03:59:33;31.70;;;17.98;;
52322;SDS011;38263;52.920;6.238;2024-03-07T04:01:59;34.05;;;17.83;;
52322;SDS011;38263;52.920;6.238;2024-03-07T04:04:25;27.95;;;16.73;;
52322;SDS011;38263;52.920;6.238;2024-03-07T04:06:52;35.65;;;18.08;;
52322;SDS011;38263;52.920;6.238;2024-03-07T04:09:18;33.08;;;17.95;;
52322;SDS011;38263;52.920;6.238;2024-03-07T04:11:45;33.63;;;17.80;;
52322;SDS011;38263;52.920;6.238;2024-03-07T04:14:11;31.73;;;18.67;;
52322;SDS011;38263;52.920;6.238;2024-03-07T04:16:37;33.67;;;19.10;;
52322;SDS011;38263;52.920;6.238;2024-03-07T04:19:04;32.03;;;17.92;;
52322;SDS011;38263;52.920;6.238;2024-03-07T04:21:30;35.25;;;18.77;;
52322;SDS011;38263;52.920;6.238;2024-03-07T04:23:56;33.08;;;18.02;;
52322;SDS011;38263;52.920;6.238;2024-03-07T04:26:23;32.00;;;17.35;;
52322;SDS011;38263;52.920;6.238;2024-03-07T04:28:48;32.22;;;17.20;;
52322;SDS011;38263;52.920;6.238;2024-03-07T04:31:15;31.20;;;17.30;;
52322;SDS011;38263;52.920;6.238;2024-03-07T04:33:41;28.77;;;15.95;;
52322;SDS011;38263;52.920;6.238;2024-03-07T04:36:07;30.58;;;17.00;;
52322;SDS011;38263;52.920;6.238;2024-03-07T04:38:33;29.48;;;17.33;;
52322;SDS011;38263;52.920;6.238;2024-03-07T04:40:59;34.38;;;18.10;;
52322;SDS011;38263;52.920;6.238;2024-03-07T04:43:25;30.90;;;17.52;;
52322;SDS011;38263;52.920;6.238;2024-03-07T04:45:51;27.42;;;16.25;;
52322;SDS011;38263;52.920;6.238;2024-03-07T04:48:17;33.17;;;17.95;;
52322;SDS011;38263;52.920;6.238;2024-03-07T04:50:43;33.15;;;17.88;;
52322;SDS011;38263;52.920;6.238;2024-03-07T04:53:09;27.73;;;16.20;;
52322;SDS011;38263;52.920;6.238;2024-03-07T04:55:35;31.88;;;16.75;;
52322;SDS011;38263;52.920;6.238;2024-03-07T04:58:01;31.63;;;16.27;;
52322;SDS011;38263;52.920;6.238;2024-03-07T05:00:27;29.70;;;16.73;;
52322;SDS011;38263;52.920;6.238;2024-03-07T05:02:55;28.48;;;16.65;;
52322;SDS011;38263;52.920;6.238;2024-03-07T05:05:22;28.80;;;15.57;;
52322;SDS011;38263;52.920;6.238;2024-03-07T05:07:51;24.75;;;16.27;;
52322;SDS011;38263;52.920;6.238;2024-03-07T05:10:17;27.30;;;16.02;;
52322;SDS011;38263;52.920;6.238;2024-03-07T05:12:43;27.88;;;15.68;;
52322;SDS011;38263;52.920;6.238;2024-03-07T05:15:09;26.58;;;15.50;;
52322;SDS011;38263;52.920;6.238;2024-03-07T05:17:35;28.75;;;17.08;;
52322;SDS011;38263;52.920;6.238;2024-03-07T05:20:04;22.15;;;14.02;;
52322;SDS011;38263;52.920;6.238;2024-03-07T05:22:35;27.33;;;15.55;;
52322;SDS011;38263;52.920;6.238;2024-03-07T05:25:05;26.13;;;15.85;;
52322;SDS011;38263;52.920;6.238;2024-03-07T05:27:32;25.38;;;15.00;;
52322;SDS011;38263;52.920;6.238;2024-03-07T05:29:59;24.33;;;15.10;;
52322;SDS011;38263;52.920;6.238;2024-03-07T05:32:26;28.55;;;15.55;;
52322;SDS011;38263;52.920;6.238;2024-03-07T05:34:52;26.10;;;15.10;;
52322;SDS011;38263;52.920;6.238;2024-03-07T05:37:21;26.15;;;15.00;;
52322;SDS011;38263;52.920;6.238;2024-03-07T05:39:48;25.33;;;14.70;;
52322;SDS011;38263;52.920;6.238;2024-03-07T05:42:14;27.42;;;16.13;;
52322;SDS011;38263;52.920;6.238;2024-03-07T05:44:41;26.42;;;15.32;;
52322;SDS011;38263;52.920;6.238;2024-03-07T05:47:07;26.88;;;15.77;;
52322;SDS011;38263;52.920;6.238;2024-03-07T05:49:34;27.98;;;16.08;;
52322;SDS011;38263;52.920;6.238;2024-03-07T05:52:00;28.02;;;15.02;;
52322;SDS011;38263;52.920;6.238;2024-03-07T05:54:26;27.30;;;15.25;;
52322;SDS011;38263;52.920;6.238;2024-03-07T05:56:54;23.02;;;14.38;;
52322;SDS011;38263;52.920;6.238;2024-03-07T05:59:20;25.23;;;15.38;;
52322;SDS011;38263;52.920;6.238;2024-03-07T06:01:46;26.98;;;15.93;;
52322;SDS011;38263;52.920;6.238;2024-03-07T06:04:12;26.58;;;15.48;;
52322;SDS011;38263;52.920;6.238;2024-03-07T06:06:38;27.60;;;15.20;;
52322;SDS011;38263;52.920;6.238;2024-03-07T06:09:07;25.48;;;15.52;;
52322;SDS011;38263;52.920;6.238;2024-03-07T06:11:34;28.75;;;16.92;;
52322;SDS011;38263;52.920;6.238;2024-03-07T06:14:01;27.42;;;16.35;;
52322;SDS011;38263;52.920;6.238;2024-03-07T06:16:31;26.50;;;15.52;;
52322;SDS011;38263;52.920;6.238;2024-03-07T06:19:01;28.25;;;15.57;;
52322;SDS011;38263;52.920;6.238;2024-03-07T06:21:28;25.30;;;15.90;;
52322;SDS011;38263;52.920;6.238;2024-03-07T06:23:57;27.98;;;15.63;;
52322;SDS011;38263;52.920;6.238;2024-03-07T06:26:30;27.90;;;16.25;;
52322;SDS011;38263;52.920;6.238;2024-03-07T06:29:11;28.40;;;15.35;;
52322;SDS011;38263;52.920;6.238;2024-03-07T06:31:37;27.33;;;16.38;;
52322;SDS011;38263;52.920;6.238;2024-03-07T06:34:03;22.00;;;14.13;;
52322;SDS011;38263;52.920;6.238;2024-03-07T06:36:29;26.80;;;16.10;;
52322;SDS011;38263;52.920;6.238;2024-03-07T06:38:55;27.15;;;15.20;;
52322;SDS011;38263;52.920;6.238;2024-03-07T06:41:21;26.75;;;16.20;;
52322;SDS011;38263;52.920;6.238;2024-03-07T06:43:47;25.10;;;15.07;;
52322;SDS011;38263;52.920;6.238;2024-03-07T06:46:15;24.40;;;14.73;;
52322;SDS011;38263;52.920;6.238;2024-03-07T06:48:41;26.45;;;16.13;;
52322;SDS011;38263;52.920;6.238;2024-03-07T06:51:07;26.50;;;16.58;;
52322;SDS011;38263;52.920;6.238;2024-03-07T06:53:33;28.65;;;17.50;;
52322;SDS011;38263;52.920;6.238;2024-03-07T06:56:00;28.15;;;16.40;;
52322;SDS011;38263;52.920;6.238;2024-03-07T06:58:26;27.73;;;15.65;;
52322;SDS011;38263;52.920;6.238;2024-03-07T07:00:52;25.27;;;15.88;;
52322;SDS011;38263;52.920;6.238;2024-03-07T07:03:23;25.02;;;16.25;;
52322;SDS011;38263;52.920;6.238;2024-03-07T07:05:49;26.58;;;17.05;;
52322;SDS011;38263;52.920;6.238;2024-03-07T07:08:15;29.73;;;17.20;;
52322;SDS011;38263;52.920;6.238;2024-03-07T07:10:41;29.27;;;17.00;;
52322;SDS011;38263;52.920;6.238;2024-03-07T07:13:08;26.10;;;16.70;;
52322;SDS011;38263;52.920;6.238;2024-03-07T07:15:35;25.30;;;15.68;;
52322;SDS011;38263;52.920;6.238;2024-03-07T07:18:02;28.75;;;18.10;;
52322;SDS011;38263;52.920;6.238;2024-03-07T07:20:28;25.50;;;15.95;;
52322;SDS011;38263;52.920;6.238;2024-03-07T07:22:54;26.33;;;17.42;;
52322;SDS011;38263;52.920;6.238;2024-03-07T07:25:22;27.55;;;17.20;;
52322;SDS011;38263;52.920;6.238;2024-03-07T07:27:49;29.90;;;17.92;;
52322;SDS011;38263;52.920;6.238;2024-03-07T07:30:20;27.42;;;17.38;;
52322;SDS011;38263;52.920;6.238;2024-03-07T07:32:47;27.33;;;17.35;;
52322;SDS011;38263;52.920;6.238;2024-03-07T07:35:13;29.33;;;18.38;;
52322;SDS011;38263;52.920;6.238;2024-03-07T07:37:40;29.80;;;17.60;;
52322;SDS011;38263;52.920;6.238;2024-03-07T07:40:07;29.92;;;17.42;;
52322;SDS011;38263;52.920;6.238;2024-03-07T07:42:34;29.83;;;17.30;;
52322;SDS011;38263;52.920;6.238;2024-03-07T07:45:00;31.38;;;17.17;;
52322;SDS011;38263;52.920;6.238;2024-03-07T07:47:26;27.65;;;17.30;;
52322;SDS011;38263;52.920;6.238;2024-03-07T07:49:52;29.27;;;18.77;;
52322;SDS011;38263;52.920;6.238;2024-03-07T07:52:18;29.42;;;18.35;;
52322;SDS011;38263;52.920;6.238;2024-03-07T07:54:44;26.75;;;17.88;;
52322;SDS011;38263;52.920;6.238;2024-03-07T07:57:10;28.02;;;18.25;;
52322;SDS011;38263;52.920;6.238;2024-03-07T07:59:36;34.10;;;18.73;;
52322;SDS011;38263;52.920;6.238;2024-03-07T08:02:02;29.77;;;18.33;;
52322;SDS011;38263;52.920;6.238;2024-03-07T08:04:31;34.75;;;19.13;;
52322;SDS011;38263;52.920;6.238;2024-03-07T08:06:57;31.10;;;18.73;;
52322;SDS011;38263;52.920;6.238;2024-03-07T08:09:23;31.20;;;19.40;;
52322;SDS011;38263;52.920;6.238;2024-03-07T08:11:49;30.08;;;20.38;;
52322;SDS011;38263;52.920;6.238;2024-03-07T08:14:17;34.78;;;20.33;;
52322;SDS011;38263;52.920;6.238;2024-03-07T08:16:43;33.80;;;20.77;;
52322;SDS011;38263;52.920;6.238;2024-03-07T08:19:09;32.65;;;20.95;;
52322;SDS011;38263;52.920;6.238;2024-03-07T08:21:36;34.92;;;21.83;;
52322;SDS011;38263;52.920;6.238;2024-03-07T08:24:02;33.10;;;20.45;;
52322;SDS011;38263;52.920;6.238;2024-03-07T08:26:35;34.05;;;20.85;;
52322;SDS011;38263;52.920;6.238;2024-03-07T08:29:02;29.42;;;19.90;;
52322;SDS011;38263;52.920;6.238;2024-03-07T08:31:28;34.22;;;20.70;;
52322;SDS011;38263;52.920;6.238;2024-03-07T08:33:54;32.50;;;20.25;;
52322;SDS011;38263;52.920;6.238;2024-03-07T08:36:20;32.28;;;21.27;;
52322;SDS011;38263;52.920;6.238;2024-03-07T08:38:47;34.15;;;21.58;;
52322;SDS011;38263;52.920;6.238;2024-03-07T08:41:13;33.35;;;20.95;;
52322;SDS011;38263;52.920;6.238;2024-03-07T08:43:39;35.67;;;21.13;;
52322;SDS011;38263;52.920;6.238;2024-03-07T08:46:05;31.95;;;20.50;;
52322;SDS011;38263;52.920;6.238;2024-03-07T08:48:31;38.53;;;22.33;;
52322;SDS011;38263;52.920;6.238;2024-03-07T08:50:57;33.90;;;21.67;;
52322;SDS011;38263;52.920;6.238;2024-03-07T08:53:23;36.22;;;22.05;;
52322;SDS011;38263;52.920;6.238;2024-03-07T08:55:49;36.88;;;21.40;;
52322;SDS011;38263;52.920;6.238;2024-03-07T08:58:15;37.70;;;21.83;;
52322;SDS011;38263;52.920;6.238;2024-03-07T09:00:41;35.83;;;20.98;;
52322;SDS011;38263;52.920;6.238;2024-03-07T09:03:10;37.53;;;21.98;;
52322;SDS011;38263;52.920;6.238;2024-03-07T09:05:36;39.17;;;22.15;;
52322;SDS011;38263;52.920;6.238;2024-03-07T09:08:02;38.63;;;23.08;;
52322;SDS011;38263;52.920;6.238;2024-03-07T09:10:28;39.25;;;22.27;;
52322;SDS011;38263;52.920;6.238;2024-03-07T09:12:54;37.05;;;21.95;;
52322;SDS011;38263;52.920;6.238;2024-03-07T09:15:21;38.47;;;21.63;;
52322;SDS011;38263;52.920;6.238;2024-03-07T09:17:47;44.97;;;23.05;;
52322;SDS011;38263;52.920;6.238;2024-03-07T09:20:13;38.50;;;22.10;;
52322;SDS011;38263;52.920;6.238;2024-03-07T09:22:40;37.10;;;21.85;;
52322;SDS011;38263;52.920;6.238;2024-03-07T09:25:06;36.50;;;19.35;;
52322;SDS011;38263;52.920;6.238;2024-03-07T09:27:33;36.83;;;20.85;;
52322;SDS011;38263;52.920;6.238;2024-03-07T09:29:58;43.65;;;23.45;;
52322;SDS011;38263;52.920;6.238;2024-03-07T09:32:24;41.55;;;23.88;;
52322;SDS011;38263;52.920;6.238;2024-03-07T09:34:53;40.30;;;20.67;;
52322;SDS011;38263;52.920;6.238;2024-03-07T09:37:19;29.25;;;15.15;;
52322;SDS011;38263;52.920;6.238;2024-03-07T09:39:48;35.90;;;18.73;;
52322;SDS011;38263;52.920;6.238;2024-03-07T09:42:14;38.13;;;21.10;;
52322;SDS011;38263;52.920;6.238;2024-03-07T09:44:43;43.17;;;21.90;;
52322;SDS011;38263;52.920;6.238;2024-03-07T09:47:11;44.45;;;22.42;;
52322;SDS011;38263;52.920;6.238;2024-03-07T09:49:38;36.45;;;17.38;;
52322;SDS011;38263;52.920;6.238;2024-03-07T09:52:05;41.90;;;21.27;;
52322;SDS011;38263;52.920;6.238;2024-03-07T09:54:36;35.65;;;18.35;;
52322;SDS011;38263;52.920;6.238;2024-03-07T09:57:03;44.47;;;22.17;;
52322;SDS011;38263;52.920;6.238;2024-03-07T09:59:32;25.02;;;13.50;;
52322;SDS011;38263;52.920;6.238;2024-03-07T10:02:00;38.92;;;20.65;;
52322;SDS011;38263;52.920;6.238;2024-03-07T10:04:31;32.55;;;15.73;;
52322;SDS011;38263;52.920;6.238;2024-03-07T10:07:03;36.03;;;18.20;;
52322;SDS011;38263;52.920;6.238;2024-03-07T10:09:29;43.17;;;22.17;;
52322;SDS011;38263;52.920;6.238;2024-03-07T10:12:00;39.15;;;19.83;;
52322;SDS011;38263;52.920;6.238;2024-03-07T10:14:27;41.45;;;20.48;;
52322;SDS011;38263;52.920;6.238;2024-03-07T10:16:57;38.75;;;20.60;;
52322;SDS011;38263;52.920;6.238;2024-03-07T10:19:24;42.45;;;23.02;;
52322;SDS011;38263;52.920;6.238;2024-03-07T10:21:50;40.20;;;20.13;;
52322;SDS011;38263;52.920;6.238;2024-03-07T10:24:26;42.47;;;21.85;;
52322;SDS011;38263;52.920;6.238;2024-03-07T10:26:52;41.75;;;21.13;;
52322;SDS011;38263;52.920;6.238;2024-03-07T10:29:21;39.40;;;20.65;;
52322;SDS011;38263;52.920;6.238;2024-03-07T10:31:49;40.53;;;21.58;;
52322;SDS011;38263;52.920;6.238;2024-03-07T10:34:15;41.67;;;21.27;;
52322;SDS011;38263;52.920;6.238;2024-03-07T10:36:42;45.22;;;21.40;;
52322;SDS011;38263;52.920;6.238;2024-03-07T10:39:08;41.75;;;20.70;;
52322;SDS011;38263;52.920;6.238;2024-03-07T10:41:48;40.05;;;19.98;;
52322;SDS011;38263;52.920;6.238;2024-03-07T10:44:23;37.53;;;19.38;;
52322;SDS011;38263;52.920;6.238;2024-03-07T10:46:57;42.72;;;21.48;;
52322;SDS011;38263;52.920;6.238;2024-03-07T10:49:28;37.03;;;18.77;;
52322;SDS011;38263;52.920;6.238;2024-03-07T10:52:03;30.80;;;16.95;;
52322;SDS011;38263;52.920;6.238;2024-03-07T10:54:34;33.55;;;18.50;;
52322;SDS011;38263;52.920;6.238;2024-03-07T10:57:10;34.28;;;18.40;;
52322;SDS011;38263;52.920;6.238;2024-03-07T11:04:52;34.35;;;18.02;;
52322;SDS011;38263;52.920;6.238;2024-03-07T11:07:22;34.00;;;17.20;;
52322;SDS011;38263;52.920;6.238;2024-03-07T11:09:51;35.05;;;19.13;;
52322;SDS011;38263;52.920;6.238;2024-03-07T11:12:23;35.28;;;19.23;;
52322;SDS011;38263;52.920;6.238;2024-03-07T11:14:51;35.47;;;18.13;;
52322;SDS011;38263;52.920;6.238;2024-03-07T11:17:18;30.08;;;18.15;;
52322;SDS011;38263;52.920;6.238;2024-03-07T11:19:44;33.72;;;18.08;;
52322;SDS011;38263;52.920;6.238;2024-03-07T11:22:27;34.30;;;18.85;;
52322;SDS011;38263;52.920;6.238;2024-03-07T11:25:00;33.75;;;17.48;;
52322;SDS011;38263;52.920;6.238;2024-03-07T11:27:31;32.53;;;17.92;;
52322;SDS011;38263;52.920;6.238;2024-03-07T11:30:04;29.05;;;15.80;;
52322;SDS011;38263;52.920;6.238;2024-03-07T11:32:34;36.72;;;17.58;;
52322;SDS011;38263;52.920;6.238;2024-03-07T11:35:03;33.15;;;18.73;;
52322;SDS011;38263;52.920;6.238;2024-03-07T11:37:42;31.83;;;17.70;;
52322;SDS011;38263;52.920;6.238;2024-03-07T11:40:42;34.00;;;17.20;;
52322;SDS011;38263;52.920;6.238;2024-03-07T11:43:04;34.13;;;17.80;;
52322;SDS011;38263;52.920;6.238;2024-03-07T11:45:30;35.42;;;19.77;;
52322;SDS011;38263;52.920;6.238;2024-03-07T11:48:11;38.47;;;19.58;;
52322;SDS011;38263;52.920;6.238;2024-03-07T11:50:37;37.42;;;19.63;;
52322;SDS011;38263;52.920;6.238;2024-03-07T11:53:04;37.50;;;17.80;;
52322;SDS011;38263;52.920;6.238;2024-03-07T11:55:31;36.45;;;18.67;;
52322;SDS011;38263;52.920;6.238;2024-03-07T12:00:38;29.73;;;16.60;;
52322;SDS011;38263;52.920;6.238;2024-03-07T12:03:07;36.03;;;19.88;;
52322;SDS011;38263;52.920;6.238;2024-03-07T12:05:38;36.13;;;18.80;;
52322;SDS011;38263;52.920;6.238;2024-03-07T12:08:07;34.90;;;18.27;;
52322;SDS011;38263;52.920;6.238;2024-03-07T12:10:35;31.88;;;18.73;;
52322;SDS011;38263;52.920;6.238;2024-03-07T12:13:01;34.90;;;17.95;;
52322;SDS011;38263;52.920;6.238;2024-03-07T12:15:29;36.42;;;18.90;;
52322;SDS011;38263;52.920;6.238;2024-03-07T12:17:57;39.90;;;19.40;;
52322;SDS011;38263;52.920;6.238;2024-03-07T12:20:23;35.55;;;18.70;;
52322;SDS011;38263;52.920;6.238;2024-03-07T12:22:59;32.17;;;18.23;;
52322;SDS011;38263;52.920;6.238;2024-03-07T12:25:30;24.42;;;12.10;;
52322;SDS011;38263;52.920;6.238;2024-03-07T12:28:00;36.58;;;18.48;;
52322;SDS011;38263;52.920;6.238;2024-03-07T12:30:28;33.65;;;18.05;;
52322;SDS011;38263;52.920;6.238;2024-03-07T12:32:57;38.42;;;19.40;;
52322;SDS011;38263;52.920;6.238;2024-03-07T12:35:23;36.10;;;17.52;;
52322;SDS011;38263;52.920;6.238;2024-03-07T12:37:50;36.50;;;18.08;;
52322;SDS011;38263;52.920;6.238;2024-03-07T12:40:16;33.05;;;15.75;;
52322;SDS011;38263;52.920;6.238;2024-03-07T12:42:46;32.92;;;16.85;;
52322;SDS011;38263;52.920;6.238;2024-03-07T12:45:12;39.55;;;19.67;;
52322;SDS011;38263;52.920;6.238;2024-03-07T12:47:43;33.42;;;18.08;;
52322;SDS011;38263;52.920;6.238;2024-03-07T12:50:09;34.08;;;17.52;;
52322;SDS011;38263;52.920;6.238;2024-03-07T12:52:36;31.08;;;16.85;;
52322;SDS011;38263;52.920;6.238;2024-03-07T12:55:02;33.60;;;17.13;;
52322;SDS011;38263;52.920;6.238;2024-03-07T12:57:31;33.25;;;17.10;;
52322;SDS011;38263;52.920;6.238;2024-03-07T12:59:57;32.28;;;17.38;;
52322;SDS011;38263;52.920;6.238;2024-03-07T13:02:23;32.97;;;16.63;;
52322;SDS011;38263;52.920;6.238;2024-03-07T13:04:52;33.78;;;18.23;;
52322;SDS011;38263;52.920;6.238;2024-03-07T13:07:18;30.92;;;16.75;;
52322;SDS011;38263;52.920;6.238;2024-03-07T13:09:44;30.73;;;16.63;;
52322;SDS011;38263;52.920;6.238;2024-03-07T13:12:13;33.00;;;17.08;;
52322;SDS011;38263;52.920;6.238;2024-03-07T13:14:40;31.67;;;16.88;;
52322;SDS011;38263;52.920;6.238;2024-03-07T13:17:08;25.92;;;13.65;;
52322;SDS011;38263;52.920;6.238;2024-03-07T13:19:34;24.90;;;12.43;;
52322;SDS011;38263;52.920;6.238;2024-03-07T13:22:03;24.45;;;12.70;;
52322;SDS011;38263;52.920;6.238;2024-03-07T13:24:31;28.23;;;14.75;;
52322;SDS011;38263;52.920;6.238;2024-03-07T13:27:00;24.27;;;11.23;;
52322;SDS011;38263;52.920;6.238;2024-03-07T13:29:26;26.55;;;13.05;;
52322;SDS011;38263;52.920;6.238;2024-03-07T13:31:53;25.95;;;13.73;;
52322;SDS011;38263;52.920;6.238;2024-03-07T13:34:21;32.33;;;15.95;;
52322;SDS011;38263;52.920;6.238;2024-03-07T13:36:50;31.13;;;15.95;;
52322;SDS011;38263;52.920;6.238;2024-03-07T13:39:16;18.77;;;10.82;;
52322;SDS011;38263;52.920;6.238;2024-03-07T13:41:43;26.70;;;13.65;;
52322;SDS011;38263;52.920;6.238;2024-03-07T13:44:13;34.42;;;16.42;;
52322;SDS011;38263;52.920;6.238;2024-03-07T13:46:39;29.83;;;14.45;;
52322;SDS011;38263;52.920;6.238;2024-03-07T13:49:05;33.80;;;16.75;;
52322;SDS011;38263;52.920;6.238;2024-03-07T13:51:41;41.40;;;17.48;;
52322;SDS011;38263;52.920;6.238;2024-03-07T13:54:18;32.85;;;15.98;;
52322;SDS011;38263;52.920;6.238;2024-03-07T13:59:57;34.80;;;15.85;;
52322;SDS011;38263;52.920;6.238;2024-03-07T14:07:43;32.22;;;16.33;;
52322;SDS011;38263;52.920;6.238;2024-03-07T14:15:54;32.25;;;16.98;;
52322;SDS011;38263;52.920;6.238;2024-03-07T14:32:03;31.98;;;17.65;;
52322;SDS011;38263;52.920;6.238;2024-03-07T14:39:31;36.53;;;17.65;;
52322;SDS011;38263;52.920;6.238;2024-03-07T14:42:03;30.20;;;14.82;;
52322;SDS011;38263;52.920;6.238;2024-03-07T14:44:35;36.78;;;17.55;;
52322;SDS011;38263;52.920;6.238;2024-03-07T14:47:06;34.50;;;17.20;;
52322;SDS011;38263;52.920;6.238;2024-03-07T14:49:35;32.78;;;16.85;;
52322;SDS011;38263;52.920;6.238;2024-03-07T14:52:02;37.47;;;17.98;;
52322;SDS011;38263;52.920;6.238;2024-03-07T14:54:28;33.90;;;16.98;;
52322;SDS011;38263;52.920;6.238;2024-03-07T14:56:54;33.78;;;17.58;;
52322;SDS011;38263;52.920;6.238;2024-03-07T14:59:20;35.65;;;17.20;;
52322;SDS011;38263;52.920;6.238;2024-03-07T15:01:46;37.90;;;18.33;;
52322;SDS011;38263;52.920;6.238;2024-03-07T15:04:13;34.35;;;17.95;;